sensor_id;sensor_type;location;lat;lon;timestamp;P1;durP1;ratioP1;P2;durP2;ratioP2
55312;SDS011;46892;45.668;11.756;2022-09-16T00:00:29;7.80;;;3.53;;
55312;SDS011;46892;45.668;11.756;2022-09-16T00:02:55;7.83;;;3.33;;
55312;SDS011;46892;45.668;11.756;2022-09-16T00:05:22;6.67;;;3.50;;
55312;SDS011;46892;45.668;11.756;2022-09-16T00:07:48;8.40;;;3.70;;
55312;SDS011;46892;45.668;11.756;2022-09-16T00:10:14;5.23;;;2.77;;
55312;SDS011;46892;45.668;11.756;2022-09-16T00:12:40;7.20;;;3.40;;
55312;SDS011;46892;45.668;11.756;2022-09-16T00:15:05;6.33;;;3.60;;
55312;SDS011;46892;45.668;11.756;2022-09-16T00:17:32;7.30;;;3.33;;
55312;SDS011;46892;45.668;11.756;2022-09-16T00:19:58;7.27;;;3.27;;
55312;SDS011;46892;45.668;11.756;2022-09-16T00:22:26;7.43;;;3.40;;
55312;SDS011;46892;45.668;11.756;2022-09-16T00:24:52;7.10;;;3.13;;
55312;SDS011;46892;45.668;11.756;2022-09-16T00:27:18;6.93;;;3.50;;
55312;SDS011;46892;45.668;11.756;2022-09-16T00:29:43;7.80;;;3.50;;
55312;SDS011;46892;45.668;11.756;2022-09-16T00:32:09;7.57;;;3.50;;
55312;SDS011;46892;45.668;11.756;2022-09-16T00:34:35;7.40;;;3.17;;
55312;SDS011;46892;45.668;11.756;2022-09-16T00:37:00;6.83;;;3.20;;
55312;SDS011;46892;45.668;11.756;2022-09-16T00:39:27;5.50;;;3.83;;
55312;SDS011;46892;45.668;11.756;2022-09-16T00:41:54;10.33;;;4.03;;
55312;SDS011;46892;45.668;11.756;2022-09-16T00:49:54;6.77;;;3.33;;
55312;SDS011;46892;45.668;11.756;2022-09-16T00:52:23;7.53;;;3.50;;
55312;SDS011;46892;45.668;11.756;2022-09-16T00:54:51;6.87;;;3.70;;
55312;SDS011;46892;45.668;11.756;2022-09-16T00:57:17;6.60;;;3.83;;
55312;SDS011;46892;45.668;11.756;2022-09-16T00:59:45;6.70;;;3.60;;
55312;SDS011;46892;45.668;11.756;2022-09-16T01:02:17;5.47;;;3.40;;
55312;SDS011;46892;45.668;11.756;2022-09-16T01:04:45;7.47;;;4.27;;
55312;SDS011;46892;45.668;11.756;2022-09-16T05:33:36;5.40;;;2.00;;
55312;SDS011;46892;45.668;11.756;2022-09-16T05:36:04;5.27;;;2.10;;
55312;SDS011;46892;45.668;11.756;2022-09-16T05:38:31;9.83;;;2.50;;
55312;SDS011;46892;45.668;11.756;2022-09-16T05:40:58;6.63;;;2.37;;
55312;SDS011;46892;45.668;11.756;2022-09-16T05:43:24;10.40;;;2.43;;
55312;SDS011;46892;45.668;11.756;2022-09-16T05:45:51;5.90;;;1.73;;
55312;SDS011;46892;45.668;11.756;2022-09-16T05:48:17;3.73;;;1.87;;
55312;SDS011;46892;45.668;11.756;2022-09-16T05:50:49;7.93;;;2.77;;
55312;SDS011;46892;45.668;11.756;2022-09-16T05:53:19;5.00;;;2.10;;
55312;SDS011;46892;45.668;11.756;2022-09-16T05:58:29;14.63;;;2.10;;
55312;SDS011;46892;45.668;11.756;2022-09-16T06:00:58;8.23;;;2.60;;
55312;SDS011;46892;45.668;11.756;2022-09-16T06:03:35;9.30;;;2.53;;
55312;SDS011;46892;45.668;11.756;2022-09-16T06:06:03;10.97;;;2.73;;
55312;SDS011;46892;45.668;11.756;2022-09-16T06:08:37;16.87;;;3.03;;
55312;SDS011;46892;45.668;11.756;2022-09-16T06:11:04;7.93;;;2.30;;
55312;SDS011;46892;45.668;11.756;2022-09-16T06:13:32;6.20;;;2.50;;
55312;SDS011;46892;45.668;11.756;2022-09-16T06:15:59;6.73;;;2.07;;
55312;SDS011;46892;45.668;11.756;2022-09-16T06:18:26;5.80;;;2.00;;
55312;SDS011;46892;45.668;11.756;2022-09-16T06:20:53;6.73;;;2.43;;
55312;SDS011;46892;45.668;11.756;2022-09-16T06:23:19;9.67;;;3.20;;
55312;SDS011;46892;45.668;11.756;2022-09-16T06:25:46;7.00;;;2.93;;
55312;SDS011;46892;45.668;11.756;2022-09-16T06:28:12;6.63;;;3.30;;
55312;SDS011;46892;45.668;11.756;2022-09-16T06:30:38;8.97;;;3.47;;
55312;SDS011;46892;45.668;11.756;2022-09-16T06:33:05;12.13;;;3.70;;
55312;SDS011;46892;45.668;11.756;2022-09-16T06:35:32;16.90;;;3.00;;
55312;SDS011;46892;45.668;11.756;2022-09-16T06:37:59;6.60;;;2.33;;
55312;SDS011;46892;45.668;11.756;2022-09-16T06:40:25;5.47;;;2.50;;
55312;SDS011;46892;45.668;11.756;2022-09-16T06:42:52;6.30;;;2.33;;
55312;SDS011;46892;45.668;11.756;2022-09-16T06:45:18;5.53;;;2.27;;
55312;SDS011;46892;45.668;11.756;2022-09-16T06:47:44;5.90;;;2.30;;
55312;SDS011;46892;45.668;11.756;2022-09-16T06:50:10;6.20;;;2.30;;
55312;SDS011;46892;45.668;11.756;2022-09-16T06:52:36;8.87;;;2.20;;
55312;SDS011;46892;45.668;11.756;2022-09-16T06:55:02;9.40;;;2.60;;
55312;SDS011;46892;45.668;11.756;2022-09-16T06:57:27;6.43;;;2.17;;
55312;SDS011;46892;45.668;11.756;2022-09-16T06:59:54;7.47;;;2.50;;
55312;SDS011;46892;45.668;11.756;2022-09-16T07:02:20;9.43;;;2.90;;
55312;SDS011;46892;45.668;11.756;2022-09-16T07:04:45;8.00;;;3.03;;
55312;SDS011;46892;45.668;11.756;2022-09-16T07:07:11;11.07;;;2.67;;
55312;SDS011;46892;45.668;11.756;2022-09-16T07:09:38;6.80;;;2.10;;
55312;SDS011;46892;45.668;11.756;2022-09-16T07:12:04;5.60;;;1.80;;
55312;SDS011;46892;45.668;11.756;2022-09-16T07:14:30;7.07;;;2.30;;
55312;SDS011;46892;45.668;11.756;2022-09-16T07:16:59;7.50;;;2.20;;
55312;SDS011;46892;45.668;11.756;2022-09-16T07:19:26;6.40;;;2.13;;
55312;SDS011;46892;45.668;11.756;2022-09-16T07:21:52;6.70;;;2.28;;
55312;SDS011;46892;45.668;11.756;2022-09-16T07:24:18;7.90;;;2.70;;
55312;SDS011;46892;45.668;11.756;2022-09-16T07:26:43;5.10;;;2.10;;
55312;SDS011;46892;45.668;11.756;2022-09-16T07:29:10;8.07;;;1.95;;
55312;SDS011;46892;45.668;11.756;2022-09-16T07:31:38;11.93;;;2.50;;
55312;SDS011;46892;45.668;11.756;2022-09-16T07:34:05;12.93;;;2.65;;
55312;SDS011;46892;45.668;11.756;2022-09-16T07:36:36;11.45;;;2.10;;
55312;SDS011;46892;45.668;11.756;2022-09-16T07:39:03;12.30;;;2.70;;
55312;SDS011;46892;45.668;11.756;2022-09-16T07:41:34;6.60;;;2.20;;
55312;SDS011;46892;45.668;11.756;2022-09-16T07:44:01;8.63;;;2.10;;
55312;SDS011;46892;45.668;11.756;2022-09-16T07:46:29;8.32;;;2.20;;
55312;SDS011;46892;45.668;11.756;2022-09-16T07:48:57;5.88;;;2.00;;
55312;SDS011;46892;45.668;11.756;2022-09-16T07:51:24;6.40;;;2.15;;
55312;SDS011;46892;45.668;11.756;2022-09-16T07:53:54;6.57;;;1.85;;
55312;SDS011;46892;45.668;11.756;2022-09-16T07:56:23;7.90;;;2.00;;
55312;SDS011;46892;45.668;11.756;2022-09-16T07:58:51;6.25;;;1.83;;
55312;SDS011;46892;45.668;11.756;2022-09-16T08:01:17;5.50;;;1.85;;
55312;SDS011;46892;45.668;11.756;2022-09-16T08:03:44;7.65;;;2.20;;
55312;SDS011;46892;45.668;11.756;2022-09-16T08:06:14;8.90;;;2.10;;
55312;SDS011;46892;45.668;11.756;2022-09-16T08:08:43;6.97;;;1.90;;
55312;SDS011;46892;45.668;11.756;2022-09-16T08:11:10;6.63;;;2.20;;
55312;SDS011;46892;45.668;11.756;2022-09-16T08:13:37;7.95;;;2.22;;
55312;SDS011;46892;45.668;11.756;2022-09-16T08:16:04;5.20;;;1.55;;
55312;SDS011;46892;45.668;11.756;2022-09-16T08:18:32;10.00;;;2.53;;
55312;SDS011;46892;45.668;11.756;2022-09-16T08:21:04;7.15;;;1.92;;
55312;SDS011;46892;45.668;11.756;2022-09-16T08:23:31;5.32;;;1.92;;
55312;SDS011;46892;45.668;11.756;2022-09-16T08:25:57;6.97;;;1.85;;
55312;SDS011;46892;45.668;11.756;2022-09-16T08:28:23;14.98;;;2.15;;
55312;SDS011;46892;45.668;11.756;2022-09-16T08:30:50;8.00;;;2.10;;
55312;SDS011;46892;45.668;11.756;2022-09-16T08:33:16;10.55;;;2.22;;
55312;SDS011;46892;45.668;11.756;2022-09-16T08:36:08;7.43;;;1.95;;
55312;SDS011;46892;45.668;11.756;2022-09-16T08:38:55;7.60;;;1.90;;
55312;SDS011;46892;45.668;11.756;2022-09-16T08:44:37;7.90;;;2.60;;
55312;SDS011;46892;45.668;11.756;2022-09-16T08:50:33;6.15;;;1.50;;
55312;SDS011;46892;45.668;11.756;2022-09-16T08:52:59;7.20;;;1.85;;
55312;SDS011;46892;45.668;11.756;2022-09-16T08:55:34;8.57;;;1.92;;
55312;SDS011;46892;45.668;11.756;2022-09-16T08:58:12;6.82;;;1.83;;
55312;SDS011;46892;45.668;11.756;2022-09-16T09:00:39;6.75;;;1.88;;
55312;SDS011;46892;45.668;11.756;2022-09-16T09:05:53;6.97;;;2.03;;
55312;SDS011;46892;45.668;11.756;2022-09-16T09:08:32;4.60;;;1.83;;
55312;SDS011;46892;45.668;11.756;2022-09-16T09:11:29;5.80;;;1.95;;
55312;SDS011;46892;45.668;11.756;2022-09-16T09:27:59;5.47;;;1.90;;
55312;SDS011;46892;45.668;11.756;2022-09-16T09:30:31;5.10;;;1.90;;
55312;SDS011;46892;45.668;11.756;2022-09-16T09:41:17;7.90;;;2.13;;
55312;SDS011;46892;45.668;11.756;2022-09-16T09:46:48;4.40;;;2.00;;
55312;SDS011;46892;45.668;11.756;2022-09-16T09:49:25;9.27;;;2.40;;
55312;SDS011;46892;45.668;11.756;2022-09-16T09:52:11;8.63;;;2.40;;
55312;SDS011;46892;45.668;11.756;2022-09-16T09:54:50;15.00;;;2.80;;
55312;SDS011;46892;45.668;11.756;2022-09-16T09:57:20;10.57;;;3.05;;
55312;SDS011;46892;45.668;11.756;2022-09-16T10:02:40;9.38;;;2.50;;
55312;SDS011;46892;45.668;11.756;2022-09-16T10:05:13;9.52;;;2.42;;
55312;SDS011;46892;45.668;11.756;2022-09-16T10:07:49;5.28;;;2.03;;
55312;SDS011;46892;45.668;11.756;2022-09-16T10:10:18;8.73;;;2.38;;
55312;SDS011;46892;45.668;11.756;2022-09-16T10:12:47;8.98;;;2.30;;
55312;SDS011;46892;45.668;11.756;2022-09-16T10:15:26;5.20;;;1.65;;
55312;SDS011;46892;45.668;11.756;2022-09-16T10:17:54;5.80;;;1.95;;
55312;SDS011;46892;45.668;11.756;2022-09-16T10:20:27;4.15;;;1.50;;
55312;SDS011;46892;45.668;11.756;2022-09-16T10:22:58;5.75;;;1.65;;
55312;SDS011;46892;45.668;11.756;2022-09-16T10:25:29;8.43;;;1.73;;
55312;SDS011;46892;45.668;11.756;2022-09-16T10:27:57;7.57;;;2.08;;
55312;SDS011;46892;45.668;11.756;2022-09-16T10:30:32;7.30;;;2.00;;
55312;SDS011;46892;45.668;11.756;2022-09-16T10:33:13;5.47;;;1.83;;
55312;SDS011;46892;45.668;11.756;2022-09-16T10:35:56;9.95;;;1.88;;
55312;SDS011;46892;45.668;11.756;2022-09-16T10:38:36;9.82;;;2.22;;
55312;SDS011;46892;45.668;11.756;2022-09-16T10:41:13;4.93;;;1.60;;
55312;SDS011;46892;45.668;11.756;2022-09-16T10:43:51;7.10;;;1.70;;
55312;SDS011;46892;45.668;11.756;2022-09-16T10:46:18;6.57;;;1.33;;
55312;SDS011;46892;45.668;11.756;2022-09-16T10:48:44;6.63;;;2.00;;
55312;SDS011;46892;45.668;11.756;2022-09-16T10:51:24;9.50;;;1.88;;
55312;SDS011;46892;45.668;11.756;2022-09-16T10:56:27;4.10;;;1.15;;
55312;SDS011;46892;45.668;11.756;2022-09-16T10:59:00;4.95;;;1.40;;
55312;SDS011;46892;45.668;11.756;2022-09-16T11:09:31;7.50;;;1.05;;
55312;SDS011;46892;45.668;11.756;2022-09-16T11:33:48;3.67;;;1.38;;
55312;SDS011;46892;45.668;11.756;2022-09-16T11:44:33;11.88;;;1.65;;
55312;SDS011;46892;45.668;11.756;2022-09-16T11:47:18;7.82;;;1.60;;
55312;SDS011;46892;45.668;11.756;2022-09-16T11:49:58;5.82;;;1.17;;
55312;SDS011;46892;45.668;11.756;2022-09-16T11:55:32;5.95;;;1.50;;
55312;SDS011;46892;45.668;11.756;2022-09-16T11:58:19;6.80;;;1.73;;
55312;SDS011;46892;45.668;11.756;2022-09-16T12:00:47;5.35;;;1.45;;
55312;SDS011;46892;45.668;11.756;2022-09-16T12:05:48;4.63;;;1.45;;
55312;SDS011;46892;45.668;11.756;2022-09-16T12:08:21;3.47;;;1.17;;
55312;SDS011;46892;45.668;11.756;2022-09-16T12:11:18;3.92;;;1.00;;
55312;SDS011;46892;45.668;11.756;2022-09-16T12:14:00;8.20;;;1.65;;
55312;SDS011;46892;45.668;11.756;2022-09-16T12:16:37;10.27;;;2.08;;
55312;SDS011;46892;45.668;11.756;2022-09-16T12:19:14;6.32;;;1.95;;
55312;SDS011;46892;45.668;11.756;2022-09-16T12:21:49;8.93;;;1.60;;
55312;SDS011;46892;45.668;11.756;2022-09-16T12:28:05;6.13;;;1.50;;
55312;SDS011;46892;45.668;11.756;2022-09-16T12:30:14;3.47;;;1.17;;
55312;SDS011;46892;45.668;11.756;2022-09-16T12:32:55;6.20;;;1.25;;
55312;SDS011;46892;45.668;11.756;2022-09-16T12:37:53;5.30;;;1.50;;
55312;SDS011;46892;45.668;11.756;2022-09-16T13:03:59;6.45;;;1.58;;
55312;SDS011;46892;45.668;11.756;2022-09-16T13:06:33;5.88;;;1.63;;
55312;SDS011;46892;45.668;11.756;2022-09-16T13:09:21;5.93;;;2.03;;
55312;SDS011;46892;45.668;11.756;2022-09-16T13:11:51;5.00;;;1.50;;
55312;SDS011;46892;45.668;11.756;2022-09-16T13:14:23;4.47;;;1.63;;
55312;SDS011;46892;45.668;11.756;2022-09-16T13:16:56;7.07;;;2.10;;
55312;SDS011;46892;45.668;11.756;2022-09-16T13:27:51;7.82;;;1.92;;
55312;SDS011;46892;45.668;11.756;2022-09-16T13:30:29;10.68;;;2.13;;
55312;SDS011;46892;45.668;11.756;2022-09-16T13:40:56;5.80;;;1.77;;
55312;SDS011;46892;45.668;11.756;2022-09-16T13:43:47;6.68;;;2.03;;
55312;SDS011;46892;45.668;11.756;2022-09-16T13:46:25;7.43;;;2.00;;
55312;SDS011;46892;45.668;11.756;2022-09-16T13:51:28;7.88;;;2.50;;
55312;SDS011;46892;45.668;11.756;2022-09-16T13:53:56;5.50;;;1.98;;
55312;SDS011;46892;45.668;11.756;2022-09-16T14:01:44;8.63;;;2.33;;
55312;SDS011;46892;45.668;11.756;2022-09-16T14:09:54;8.20;;;2.17;;
55312;SDS011;46892;45.668;11.756;2022-09-16T14:13:18;8.18;;;2.20;;
55312;SDS011;46892;45.668;11.756;2022-09-16T14:15:18;7.88;;;2.03;;
55312;SDS011;46892;45.668;11.756;2022-09-16T14:17:46;6.80;;;2.10;;
55312;SDS011;46892;45.668;11.756;2022-09-16T14:20:21;5.25;;;2.00;;
55312;SDS011;46892;45.668;11.756;2022-09-16T14:22:58;9.63;;;2.75;;
55312;SDS011;46892;45.668;11.756;2022-09-16T14:25:32;7.50;;;2.03;;
55312;SDS011;46892;45.668;11.756;2022-09-16T14:30:53;11.40;;;2.22;;
55312;SDS011;46892;45.668;11.756;2022-09-16T14:33:24;9.07;;;2.33;;
55312;SDS011;46892;45.668;11.756;2022-09-16T14:36:06;6.90;;;1.88;;
55312;SDS011;46892;45.668;11.756;2022-09-16T14:38:39;7.60;;;2.25;;
55312;SDS011;46892;45.668;11.756;2022-09-16T14:41:13;6.25;;;2.03;;
55312;SDS011;46892;45.668;11.756;2022-09-16T14:43:48;4.15;;;1.90;;
55312;SDS011;46892;45.668;11.756;2022-09-16T14:46:14;5.82;;;1.75;;
55312;SDS011;46892;45.668;11.756;2022-09-16T14:48:41;5.55;;;2.17;;
55312;SDS011;46892;45.668;11.756;2022-09-16T14:51:09;6.60;;;1.85;;
55312;SDS011;46892;45.668;11.756;2022-09-16T14:53:57;7.80;;;2.10;;
55312;SDS011;46892;45.668;11.756;2022-09-16T14:56:25;4.07;;;1.88;;
55312;SDS011;46892;45.668;11.756;2022-09-16T14:58:51;8.45;;;2.17;;
55312;SDS011;46892;45.668;11.756;2022-09-16T15:01:26;8.77;;;2.05;;
55312;SDS011;46892;45.668;11.756;2022-09-16T15:06:27;7.90;;;2.15;;
55312;SDS011;46892;45.668;11.756;2022-09-16T15:09:12;3.75;;;1.63;;
55312;SDS011;46892;45.668;11.756;2022-09-16T15:11:51;5.32;;;2.05;;
55312;SDS011;46892;45.668;11.756;2022-09-16T15:14:21;8.73;;;2.22;;
55312;SDS011;46892;45.668;11.756;2022-09-16T15:16:52;6.07;;;1.48;;
55312;SDS011;46892;45.668;11.756;2022-09-16T15:19:28;9.73;;;2.30;;
55312;SDS011;46892;45.668;11.756;2022-09-16T15:21:59;4.70;;;1.92;;
55312;SDS011;46892;45.668;11.756;2022-09-16T15:24:28;8.23;;;2.20;;
55312;SDS011;46892;45.668;11.756;2022-09-16T15:26:57;8.23;;;2.00;;
55312;SDS011;46892;45.668;11.756;2022-09-16T15:31:51;5.53;;;2.28;;
55312;SDS011;46892;45.668;11.756;2022-09-16T15:36:43;7.72;;;2.65;;
55312;SDS011;46892;45.668;11.756;2022-09-16T15:39:24;16.17;;;2.40;;
55312;SDS011;46892;45.668;11.756;2022-09-16T15:49:54;7.70;;;2.10;;
55312;SDS011;46892;45.668;11.756;2022-09-16T15:52:24;5.43;;;2.17;;
55312;SDS011;46892;45.668;11.756;2022-09-16T15:54:57;5.38;;;1.98;;
55312;SDS011;46892;45.668;11.756;2022-09-16T16:00:06;6.63;;;2.28;;
55312;SDS011;46892;45.668;11.756;2022-09-16T16:02:45;7.90;;;2.53;;
55312;SDS011;46892;45.668;11.756;2022-09-16T16:05:27;9.70;;;2.30;;
55312;SDS011;46892;45.668;11.756;2022-09-16T16:08:01;8.63;;;1.90;;
55312;SDS011;46892;45.668;11.756;2022-09-16T16:12:56;6.13;;;2.10;;
55312;SDS011;46892;45.668;11.756;2022-09-16T16:15:24;6.57;;;1.88;;
55312;SDS011;46892;45.668;11.756;2022-09-16T16:17:53;5.15;;;1.90;;
55312;SDS011;46892;45.668;11.756;2022-09-16T16:20:22;4.77;;;2.10;;
55312;SDS011;46892;45.668;11.756;2022-09-16T16:22:48;9.07;;;2.28;;
55312;SDS011;46892;45.668;11.756;2022-09-16T16:25:14;6.43;;;2.30;;
55312;SDS011;46892;45.668;11.756;2022-09-16T16:27:40;4.70;;;1.90;;
55312;SDS011;46892;45.668;11.756;2022-09-16T16:30:06;3.90;;;1.55;;
55312;SDS011;46892;45.668;11.756;2022-09-16T16:32:33;7.88;;;2.10;;
55312;SDS011;46892;45.668;11.756;2022-09-16T16:34:59;6.72;;;1.80;;
55312;SDS011;46892;45.668;11.756;2022-09-16T16:37:25;7.67;;;1.80;;
55312;SDS011;46892;45.668;11.756;2022-09-16T16:39:51;8.43;;;1.98;;
55312;SDS011;46892;45.668;11.756;2022-09-16T16:42:18;7.22;;;1.63;;
55312;SDS011;46892;45.668;11.756;2022-09-16T16:44:44;7.78;;;1.77;;
55312;SDS011;46892;45.668;11.756;2022-09-16T16:47:10;6.60;;;1.58;;
55312;SDS011;46892;45.668;11.756;2022-09-16T16:49:37;11.32;;;1.92;;
55312;SDS011;46892;45.668;11.756;2022-09-16T16:52:04;7.75;;;2.08;;
55312;SDS011;46892;45.668;11.756;2022-09-16T16:54:30;7.75;;;1.75;;
55312;SDS011;46892;45.668;11.756;2022-09-16T16:56:57;3.95;;;1.60;;
55312;SDS011;46892;45.668;11.756;2022-09-16T16:59:23;4.77;;;1.70;;
55312;SDS011;46892;45.668;11.756;2022-09-16T17:01:51;6.90;;;1.90;;
55312;SDS011;46892;45.668;11.756;2022-09-16T17:04:18;8.93;;;2.00;;
55312;SDS011;46892;45.668;11.756;2022-09-16T17:06:44;24.00;;;2.90;;
55312;SDS011;46892;45.668;11.756;2022-09-16T17:09:10;17.13;;;2.80;;
55312;SDS011;46892;45.668;11.756;2022-09-16T17:11:37;16.77;;;3.45;;
55312;SDS011;46892;45.668;11.756;2022-09-16T17:14:21;14.17;;;3.60;;
55312;SDS011;46892;45.668;11.756;2022-09-16T17:16:48;12.40;;;3.17;;
55312;SDS011;46892;45.668;11.756;2022-09-16T17:19:15;7.97;;;2.40;;
55312;SDS011;46892;45.668;11.756;2022-09-16T17:21:42;8.63;;;2.10;;
55312;SDS011;46892;45.668;11.756;2022-09-16T17:24:08;8.23;;;2.47;;
55312;SDS011;46892;45.668;11.756;2022-09-16T17:26:34;3.80;;;2.13;;
55312;SDS011;46892;45.668;11.756;2022-09-16T17:28:59;9.20;;;2.80;;
55312;SDS011;46892;45.668;11.756;2022-09-16T17:31:27;7.33;;;2.63;;
55312;SDS011;46892;45.668;11.756;2022-09-16T17:33:54;9.07;;;2.90;;
55312;SDS011;46892;45.668;11.756;2022-09-16T17:36:22;6.43;;;2.47;;
55312;SDS011;46892;45.668;11.756;2022-09-16T17:38:55;9.17;;;2.60;;
55312;SDS011;46892;45.668;11.756;2022-09-16T17:41:21;6.00;;;2.23;;
55312;SDS011;46892;45.668;11.756;2022-09-16T17:43:47;4.53;;;1.80;;
55312;SDS011;46892;45.668;11.756;2022-09-16T17:46:14;4.80;;;2.07;;
55312;SDS011;46892;45.668;11.756;2022-09-16T17:48:42;9.70;;;2.20;;
55312;SDS011;46892;45.668;11.756;2022-09-16T17:51:08;6.87;;;2.80;;
55312;SDS011;46892;45.668;11.756;2022-09-16T17:53:34;6.50;;;2.97;;
55312;SDS011;46892;45.668;11.756;2022-09-16T17:56:07;8.30;;;2.37;;
55312;SDS011;46892;45.668;11.756;2022-09-16T17:58:39;7.70;;;2.27;;
55312;SDS011;46892;45.668;11.756;2022-09-16T18:01:19;5.77;;;2.20;;
55312;SDS011;46892;45.668;11.756;2022-09-16T18:03:48;9.73;;;2.40;;
55312;SDS011;46892;45.668;11.756;2022-09-16T18:06:17;9.60;;;2.40;;
55312;SDS011;46892;45.668;11.756;2022-09-16T18:08:43;5.73;;;2.47;;
55312;SDS011;46892;45.668;11.756;2022-09-16T18:11:10;9.10;;;2.70;;
55312;SDS011;46892;45.668;11.756;2022-09-16T18:13:37;6.23;;;2.57;;
55312;SDS011;46892;45.668;11.756;2022-09-16T18:18:31;8.20;;;2.03;;
55312;SDS011;46892;45.668;11.756;2022-09-16T18:20:57;4.93;;;2.37;;
55312;SDS011;46892;45.668;11.756;2022-09-16T18:23:23;5.70;;;1.33;;
55312;SDS011;46892;45.668;11.756;2022-09-16T18:25:49;5.07;;;1.40;;
55312;SDS011;46892;45.668;11.756;2022-09-16T18:28:15;6.37;;;2.10;;
55312;SDS011;46892;45.668;11.756;2022-09-16T18:30:40;3.10;;;1.33;;
55312;SDS011;46892;45.668;11.756;2022-09-16T18:33:08;6.27;;;1.30;;
55312;SDS011;46892;45.668;11.756;2022-09-16T18:35:34;4.70;;;1.60;;
55312;SDS011;46892;45.668;11.756;2022-09-16T18:38:02;3.30;;;1.50;;
55312;SDS011;46892;45.668;11.756;2022-09-16T18:40:28;1.87;;;1.10;;
55312;SDS011;46892;45.668;11.756;2022-09-16T18:42:54;3.73;;;1.40;;
55312;SDS011;46892;45.668;11.756;2022-09-16T18:45:20;3.57;;;1.10;;
55312;SDS011;46892;45.668;11.756;2022-09-16T18:47:46;2.80;;;1.27;;
55312;SDS011;46892;45.668;11.756;2022-09-16T18:50:11;3.00;;;1.13;;
55312;SDS011;46892;45.668;11.756;2022-09-16T18:52:39;3.23;;;1.20;;
55312;SDS011;46892;45.668;11.756;2022-09-16T18:55:04;3.07;;;1.13;;
55312;SDS011;46892;45.668;11.756;2022-09-16T18:57:30;4.30;;;1.20;;
55312;SDS011;46892;45.668;11.756;2022-09-16T18:59:56;4.30;;;1.30;;
55312;SDS011;46892;45.668;11.756;2022-09-16T19:02:21;4.53;;;1.53;;
55312;SDS011;46892;45.668;11.756;2022-09-16T19:04:47;2.43;;;1.40;;
55312;SDS011;46892;45.668;11.756;2022-09-16T19:07:13;4.73;;;1.60;;
55312;SDS011;46892;45.668;11.756;2022-09-16T19:09:41;4.73;;;1.70;;
55312;SDS011;46892;45.668;11.756;2022-09-16T19:12:09;2.90;;;1.20;;
55312;SDS011;46892;45.668;11.756;2022-09-16T19:14:36;3.37;;;1.37;;
55312;SDS011;46892;45.668;11.756;2022-09-16T19:17:02;3.83;;;1.07;;
55312;SDS011;46892;45.668;11.756;2022-09-16T19:19:28;4.07;;;1.60;;
55312;SDS011;46892;45.668;11.756;2022-09-16T19:21:55;4.10;;;1.53;;
55312;SDS011;46892;45.668;11.756;2022-09-16T19:24:22;1.50;;;0.90;;
55312;SDS011;46892;45.668;11.756;2022-09-16T19:26:50;4.33;;;1.10;;
55312;SDS011;46892;45.668;11.756;2022-09-16T19:29:18;4.93;;;1.00;;
55312;SDS011;46892;45.668;11.756;2022-09-16T19:31:45;2.47;;;1.00;;
55312;SDS011;46892;45.668;11.756;2022-09-16T19:34:13;9.33;;;1.63;;
55312;SDS011;46892;45.668;11.756;2022-09-16T19:36:39;3.20;;;1.10;;
55312;SDS011;46892;45.668;11.756;2022-09-16T19:39:06;3.97;;;1.40;;
55312;SDS011;46892;45.668;11.756;2022-09-16T19:41:33;4.90;;;2.17;;
55312;SDS011;46892;45.668;11.756;2022-09-16T19:44:02;4.00;;;1.90;;
55312;SDS011;46892;45.668;11.756;2022-09-16T19:46:32;5.43;;;2.00;;
55312;SDS011;46892;45.668;11.756;2022-09-16T19:49:00;7.57;;;2.25;;
55312;SDS011;46892;45.668;11.756;2022-09-16T19:51:26;3.30;;;1.60;;
55312;SDS011;46892;45.668;11.756;2022-09-16T19:53:53;2.93;;;1.53;;
55312;SDS011;46892;45.668;11.756;2022-09-16T19:56:20;3.50;;;1.47;;
55312;SDS011;46892;45.668;11.756;2022-09-16T19:58:47;2.17;;;1.27;;
55312;SDS011;46892;45.668;11.756;2022-09-16T20:01:24;2.37;;;1.40;;
55312;SDS011;46892;45.668;11.756;2022-09-16T20:03:51;3.40;;;1.27;;
55312;SDS011;46892;45.668;11.756;2022-09-16T20:06:19;2.47;;;1.47;;
55312;SDS011;46892;45.668;11.756;2022-09-16T20:08:53;2.53;;;1.40;;
55312;SDS011;46892;45.668;11.756;2022-09-16T20:11:21;5.50;;;1.80;;
55312;SDS011;46892;45.668;11.756;2022-09-16T20:13:53;3.17;;;1.63;;
55312;SDS011;46892;45.668;11.756;2022-09-16T20:16:24;3.87;;;2.10;;
55312;SDS011;46892;45.668;11.756;2022-09-16T20:18:52;3.93;;;1.63;;
55312;SDS011;46892;45.668;11.756;2022-09-16T20:21:19;4.87;;;1.77;;
55312;SDS011;46892;45.668;11.756;2022-09-16T20:23:46;3.47;;;1.90;;
55312;SDS011;46892;45.668;11.756;2022-09-16T20:26:13;2.70;;;1.70;;
55312;SDS011;46892;45.668;11.756;2022-09-16T20:28:43;3.13;;;1.40;;
55312;SDS011;46892;45.668;11.756;2022-09-16T20:31:12;3.20;;;1.80;;
55312;SDS011;46892;45.668;11.756;2022-09-16T20:33:39;2.37;;;1.67;;
55312;SDS011;46892;45.668;11.756;2022-09-16T20:36:06;2.60;;;1.77;;
55312;SDS011;46892;45.668;11.756;2022-09-16T20:38:34;4.97;;;2.20;;
55312;SDS011;46892;45.668;11.756;2022-09-16T20:41:05;4.27;;;1.70;;
55312;SDS011;46892;45.668;11.756;2022-09-16T20:43:31;4.78;;;1.85;;
55312;SDS011;46892;45.668;11.756;2022-09-16T20:46:04;2.87;;;1.90;;
55312;SDS011;46892;45.668;11.756;2022-09-16T20:48:31;3.07;;;1.63;;
55312;SDS011;46892;45.668;11.756;2022-09-16T20:51:01;4.03;;;1.83;;
55312;SDS011;46892;45.668;11.756;2022-09-16T20:53:31;2.53;;;1.60;;
55312;SDS011;46892;45.668;11.756;2022-09-16T20:56:04;3.90;;;1.70;;
55312;SDS011;46892;45.668;11.756;2022-09-16T20:58:34;4.90;;;1.60;;
55312;SDS011;46892;45.668;11.756;2022-09-16T21:03:29;2.27;;;1.00;;
55312;SDS011;46892;45.668;11.756;2022-09-16T21:05:58;4.73;;;0.87;;
55312;SDS011;46892;45.668;11.756;2022-09-16T21:08:25;1.70;;;0.77;;
55312;SDS011;46892;45.668;11.756;2022-09-16T21:10:51;2.43;;;0.70;;
55312;SDS011;46892;45.668;11.756;2022-09-16T21:13:17;1.43;;;0.70;;
55312;SDS011;46892;45.668;11.756;2022-09-16T21:15:42;2.53;;;0.90;;
55312;SDS011;46892;45.668;11.756;2022-09-16T21:18:21;1.63;;;0.60;;
55312;SDS011;46892;45.668;11.756;2022-09-16T21:20:47;1.37;;;0.67;;
55312;SDS011;46892;45.668;11.756;2022-09-16T21:23:13;1.67;;;0.67;;
55312;SDS011;46892;45.668;11.756;2022-09-16T21:25:39;2.77;;;0.93;;
55312;SDS011;46892;45.668;11.756;2022-09-16T21:28:05;1.87;;;0.40;;
55312;SDS011;46892;45.668;11.756;2022-09-16T21:30:32;1.27;;;0.50;;
55312;SDS011;46892;45.668;11.756;2022-09-16T21:32:58;1.50;;;0.30;;
55312;SDS011;46892;45.668;11.756;2022-09-16T21:35:24;1.60;;;0.40;;
55312;SDS011;46892;45.668;11.756;2022-09-16T21:37:51;1.03;;;0.40;;
55312;SDS011;46892;45.668;11.756;2022-09-16T21:40:17;1.63;;;0.50;;
55312;SDS011;46892;45.668;11.756;2022-09-16T21:42:46;2.83;;;0.30;;
55312;SDS011;46892;45.668;11.756;2022-09-16T21:45:12;0.77;;;0.33;;
55312;SDS011;46892;45.668;11.756;2022-09-16T21:47:39;1.00;;;0.40;;
55312;SDS011;46892;45.668;11.756;2022-09-16T21:50:05;1.00;;;0.40;;
55312;SDS011;46892;45.668;11.756;2022-09-16T21:52:32;1.80;;;0.40;;
55312;SDS011;46892;45.668;11.756;2022-09-16T21:54:58;0.90;;;0.40;;
55312;SDS011;46892;45.668;11.756;2022-09-16T21:57:24;1.67;;;0.30;;
55312;SDS011;46892;45.668;11.756;2022-09-16T21:59:49;0.30;;;0.20;;
55312;SDS011;46892;45.668;11.756;2022-09-16T22:02:15;1.20;;;0.20;;
55312;SDS011;46892;45.668;11.756;2022-09-16T22:04:40;0.50;;;0.20;;
55312;SDS011;46892;45.668;11.756;2022-09-16T22:07:06;0.70;;;0.20;;
55312;SDS011;46892;45.668;11.756;2022-09-16T22:09:35;0.90;;;0.20;;
55312;SDS011;46892;45.668;11.756;2022-09-16T22:12:01;1.60;;;0.27;;